createdAt,value
2023-01-12T00:01:24.994Z,7.50
2023-01-12T00:03:52.068Z,7.50
2023-01-12T00:06:22.047Z,7.50
2023-01-12T00:08:49.149Z,7.50
2023-01-12T00:11:16.133Z,7.50
2023-01-12T00:13:42.985Z,7.50
2023-01-12T00:16:32.256Z,7.50
2023-01-12T00:18:59.123Z,7.50
2023-01-12T00:21:26.207Z,7.50
2023-01-12T00:23:52.982Z,7.50
2023-01-12T00:26:19.749Z,7.50
2023-01-12T00:28:46.402Z,7.50
2023-01-12T00:31:13.165Z,7.50
2023-01-12T00:33:39.977Z,7.60
2023-01-12T00:36:08.472Z,7.50
2023-01-12T00:38:36.418Z,7.60
2023-01-12T00:41:10.358Z,7.50
2023-01-12T00:43:55.476Z,7.60
2023-01-12T00:46:32.313Z,7.60
2023-01-12T00:48:59.054Z,7.60
2023-01-12T00:51:25.836Z,7.60
2023-01-12T00:53:52.475Z,7.60
2023-01-12T00:56:19.277Z,7.60
2023-01-12T00:58:46.773Z,7.60
2023-01-12T01:01:13.518Z,7.60
2023-01-12T01:03:40.337Z,7.60
2023-01-12T01:06:07.364Z,7.60
2023-01-12T01:08:36.426Z,7.60
2023-01-12T01:11:07.703Z,7.60
2023-01-12T01:13:36.497Z,7.60
2023-01-12T01:16:04.362Z,7.60
2023-01-12T01:18:31.626Z,7.50
2023-01-12T01:20:58.363Z,7.50
2023-01-12T01:23:25.824Z,7.50
2023-01-12T01:25:52.550Z,7.50
2023-01-12T01:28:19.376Z,7.50
2023-01-12T01:30:46.307Z,7.50
2023-01-12T01:33:13.710Z,7.50
2023-01-12T01:35:40.384Z,7.50
2023-01-12T01:38:07.187Z,7.50
2023-01-12T01:40:34.014Z,7.50
2023-01-12T01:43:00.809Z,7.40
2023-01-12T01:45:27.562Z,7.40
2023-01-12T01:47:55.865Z,7.40
2023-01-12T01:50:28.688Z,7.40
2023-01-12T01:52:57.732Z,7.40
2023-01-12T01:55:26.742Z,7.40
2023-01-12T01:58:02.912Z,7.40
2023-01-12T02:00:29.813Z,7.30
2023-01-12T02:02:56.637Z,7.30
2023-01-12T02:05:24.880Z,7.30
2023-01-12T02:07:51.868Z,7.30
2023-01-12T02:10:18.776Z,7.30
2023-01-12T02:13:04.401Z,7.30
2023-01-12T02:16:11.515Z,7.30
2023-01-12T02:18:58.976Z,7.40
2023-01-12T02:21:56.452Z,7.40
2023-01-12T02:25:01.959Z,7.40
2023-01-12T02:27:50.616Z,7.40
2023-01-12T02:30:48.256Z,7.40
2023-01-12T02:33:36.465Z,7.40
2023-01-12T02:36:13.999Z,7.40
2023-01-12T02:38:52.985Z,7.40
2023-01-12T02:41:53.527Z,7.40
2023-01-12T02:44:38.442Z,7.30
2023-01-12T02:47:06.681Z,7.40
2023-01-12T02:49:36.631Z,7.40
2023-01-12T02:52:05.746Z,7.30
2023-01-12T02:54:32.428Z,7.40
2023-01-12T02:57:04.675Z,7.40
2023-01-12T02:59:36.010Z,7.40
2023-01-12T03:02:08.800Z,7.40
2023-01-12T03:04:35.590Z,7.40
2023-01-12T03:07:02.288Z,7.40
2023-01-12T03:09:31.568Z,7.40
2023-01-12T03:12:01.469Z,7.40
2023-01-12T03:14:28.139Z,7.40
2023-01-12T03:16:55.024Z,7.30
2023-01-12T03:19:23.814Z,7.30
2023-01-12T03:22:00.519Z,7.40
2023-01-12T03:24:37.942Z,7.40
2023-01-12T03:27:08.825Z,7.40
2023-01-12T03:29:37.772Z,7.40
2023-01-12T03:32:04.614Z,7.40
2023-01-12T03:34:32.103Z,7.50
2023-01-12T03:37:13.887Z,7.50
2023-01-12T03:40:06.222Z,7.50
2023-01-12T03:43:04.515Z,7.50
2023-01-12T03:45:42.682Z,7.50
2023-01-12T03:48:24.856Z,7.50
2023-01-12T03:50:55.116Z,7.50
2023-01-12T03:53:22.510Z,7.50
2023-01-12T03:55:51.854Z,7.50
2023-01-12T03:58:18.598Z,7.50
2023-01-12T04:00:45.309Z,7.50
2023-01-12T04:03:13.359Z,7.50
2023-01-12T04:05:41.783Z,7.50
2023-01-12T04:08:08.929Z,7.50
2023-01-12T04:10:35.637Z,7.50
2023-01-12T04:13:02.467Z,7.50
2023-01-12T04:15:29.132Z,7.50
2023-01-12T04:17:55.842Z,7.60
2023-01-12T04:20:22.590Z,7.60
2023-01-12T04:22:49.371Z,7.60
2023-01-12T04:25:20.247Z,7.60
2023-01-12T04:27:49.093Z,7.60
2023-01-12T04:30:17.002Z,7.60
2023-01-12T04:32:44.222Z,7.70
2023-01-12T04:35:14.034Z,7.70
2023-01-12T04:37:40.828Z,7.70
2023-01-12T04:40:08.201Z,7.70
2023-01-12T04:42:53.370Z,7.70
2023-01-12T04:45:20.029Z,7.70
2023-01-12T04:47:46.714Z,7.70
2023-01-12T04:50:13.484Z,7.70
2023-01-12T04:52:40.321Z,7.70
2023-01-12T04:55:07.342Z,7.70
2023-01-12T04:57:34.106Z,7.70
2023-01-12T05:00:00.810Z,7.70
2023-01-12T05:02:27.776Z,7.80
2023-01-12T05:04:54.557Z,7.80
2023-01-12T05:07:21.567Z,7.80
2023-01-12T05:10:07.165Z,7.80
2023-01-12T05:12:33.963Z,7.90
2023-01-12T05:15:00.723Z,7.90
2023-01-12T05:17:27.387Z,7.90
2023-01-12T05:19:54.134Z,7.80
2023-01-12T05:22:20.811Z,7.90
2023-01-12T05:24:48.175Z,7.80
2023-01-12T05:27:15.046Z,7.90
2023-01-12T05:29:41.805Z,7.90
2023-01-12T05:32:08.540Z,7.80
2023-01-12T05:34:35.239Z,7.80
2023-01-12T05:37:02.563Z,7.80
2023-01-12T05:39:29.272Z,7.80
2023-01-12T05:42:14.456Z,7.80
2023-01-12T05:44:41.223Z,7.80
2023-01-12T05:47:07.907Z,7.80
2023-01-12T05:49:34.649Z,7.90
2023-01-12T05:52:01.360Z,7.90
2023-01-12T05:54:28.067Z,7.90
2023-01-12T05:56:55.424Z,7.90
2023-01-12T05:59:22.202Z,7.90
2023-01-12T06:01:48.987Z,7.80
2023-01-12T06:04:15.732Z,7.80
2023-01-12T06:06:42.658Z,7.80
2023-01-12T06:09:09.447Z,7.80
2023-01-12T06:11:54.555Z,7.80
2023-01-12T06:14:21.308Z,7.80
2023-01-12T06:16:47.999Z,7.80
2023-01-12T06:19:14.736Z,7.90
2023-01-12T06:21:41.418Z,7.90
2023-01-12T06:24:08.597Z,7.90
2023-01-12T06:26:35.367Z,8.00
2023-01-12T06:29:03.487Z,8.00
2023-01-12T06:31:30.741Z,8.00
2023-01-12T06:33:57.552Z,8.00
2023-01-12T06:36:24.240Z,8.00
2023-01-12T06:38:50.969Z,8.10
2023-01-12T06:41:36.189Z,8.10
2023-01-12T06:44:02.957Z,8.00
2023-01-12T06:46:29.993Z,8.00
2023-01-12T06:48:57.723Z,8.10
2023-01-12T06:51:24.764Z,8.10
2023-01-12T06:53:51.624Z,8.10
2023-01-12T06:56:18.384Z,8.10
2023-01-12T06:58:45.194Z,8.10
2023-01-12T07:01:13.595Z,8.10
2023-01-12T07:03:40.509Z,8.20
2023-01-12T07:06:07.244Z,8.20
2023-01-12T07:08:33.997Z,8.20
2023-01-12T07:11:03.494Z,8.20
2023-01-12T07:13:30.988Z,8.20
2023-01-12T07:16:01.347Z,8.20
2023-01-12T07:18:28.420Z,8.20
2023-01-12T07:20:55.163Z,8.30
2023-01-12T07:23:21.911Z,8.30
2023-01-12T07:25:48.598Z,8.30
2023-01-12T07:28:15.335Z,8.30
2023-01-12T07:30:41.997Z,8.30
2023-01-12T07:33:09.751Z,8.30
2023-01-12T07:35:36.422Z,8.30
2023-01-12T07:38:03.156Z,8.30
2023-01-12T07:40:29.840Z,8.20
2023-01-12T07:43:00.865Z,8.20
2023-01-12T07:45:27.740Z,8.20
2023-01-12T07:47:54.843Z,8.30
2023-01-12T07:50:25.167Z,8.30
2023-01-12T07:52:52.035Z,8.40
2023-01-12T07:55:19.614Z,8.30
2023-01-12T07:57:56.792Z,8.40
2023-01-12T08:00:23.830Z,8.40
2023-01-12T08:02:51.665Z,8.30
2023-01-12T08:05:18.618Z,8.40
2023-01-12T08:07:45.374Z,8.40
2023-01-12T08:10:12.350Z,8.40
2023-01-12T08:12:39.100Z,8.40
2023-01-12T08:15:06.428Z,8.40
2023-01-12T08:17:35.055Z,8.40
2023-01-12T08:20:05.368Z,8.40
2023-01-12T08:22:33.965Z,8.30
2023-01-12T08:25:04.866Z,8.30
2023-01-12T08:27:31.892Z,8.30
2023-01-12T08:29:59.903Z,8.30
2023-01-12T08:32:29.746Z,8.30
2023-01-12T08:34:58.675Z,8.40
2023-01-12T08:37:28.958Z,8.40
2023-01-12T08:39:55.918Z,8.40
2023-01-12T08:42:26.409Z,8.40
2023-01-12T08:44:54.598Z,8.40
2023-01-12T08:47:26.876Z,8.40
2023-01-12T08:49:57.715Z,8.40
2023-01-12T08:52:26.393Z,8.40
2023-01-12T08:54:53.043Z,8.40
2023-01-12T08:57:19.833Z,8.40
2023-01-12T08:59:46.563Z,8.40
2023-01-12T09:02:13.941Z,8.40
2023-01-12T09:04:40.876Z,8.40
2023-01-12T09:07:08.475Z,8.40
2023-01-12T09:09:35.228Z,8.30
2023-01-12T09:12:01.985Z,8.30
2023-01-12T09:14:29.443Z,8.30
2023-01-12T09:16:58.944Z,8.30
2023-01-12T09:19:25.995Z,8.40
2023-01-12T09:21:52.701Z,8.40
2023-01-12T09:24:19.533Z,8.40
2023-01-12T09:26:46.486Z,8.40
2023-01-12T09:29:13.855Z,8.40
2023-01-12T09:31:42.516Z,8.40
2023-01-12T09:34:09.502Z,8.40
2023-01-12T09:36:37.089Z,8.40
2023-01-12T09:39:04.591Z,8.40
2023-01-12T09:41:57.660Z,8.50
2023-01-12T09:45:00.258Z,8.40
2023-01-12T09:47:55.253Z,8.40
2023-01-12T09:50:39.187Z,8.40
2023-01-12T09:53:23.047Z,8.40
2023-01-12T09:56:04.820Z,8.40
2023-01-12T09:58:31.521Z,8.40
2023-01-12T10:00:58.401Z,8.40
2023-01-12T10:03:26.277Z,8.40
2023-01-12T10:05:58.240Z,8.40
2023-01-12T10:08:31.787Z,8.40
2023-01-12T10:11:15.680Z,8.40
2023-01-12T10:13:51.439Z,8.40
2023-01-12T10:16:42.247Z,8.40
2023-01-12T10:19:46.842Z,8.50
2023-01-12T10:22:38.019Z,8.50
2023-01-12T10:25:14.064Z,8.60
2023-01-12T10:27:45.047Z,8.60
2023-01-12T10:30:14.050Z,8.60
2023-01-12T10:32:42.274Z,8.70
2023-01-12T10:35:20.149Z,8.70
2023-01-12T10:37:54.774Z,8.70
2023-01-12T10:40:24.602Z,8.70
2023-01-12T10:43:22.670Z,8.70
2023-01-12T10:46:15.276Z,8.70
2023-01-12T10:48:44.363Z,8.70
2023-01-12T10:51:31.123Z,8.60
2023-01-12T10:54:11.602Z,8.60
2023-01-12T10:56:41.729Z,8.60
2023-01-12T10:59:11.841Z,8.60
2023-01-12T11:01:51.590Z,8.60
2023-01-12T11:04:24.208Z,8.70
2023-01-12T11:07:10.766Z,8.70
2023-01-12T11:09:37.693Z,8.70
2023-01-12T11:12:24.010Z,8.70
2023-01-12T11:15:09.764Z,8.70
2023-01-12T11:17:43.707Z,8.70
2023-01-12T11:20:59.769Z,8.70
2023-01-12T11:23:42.206Z,8.70
2023-01-12T11:26:19.549Z,8.80
2023-01-12T11:28:52.066Z,8.80
2023-01-12T11:31:25.693Z,8.80
2023-01-12T11:33:57.370Z,8.80
2023-01-12T11:36:41.685Z,8.70
2023-01-12T11:39:15.806Z,8.70
2023-01-12T11:42:07.896Z,8.70
2023-01-12T11:44:41.021Z,8.70
2023-01-12T11:47:14.809Z,8.80
2023-01-12T11:49:46.812Z,8.80
2023-01-12T11:52:14.374Z,8.70
2023-01-12T11:54:41.058Z,8.80
2023-01-12T11:57:23.394Z,8.80
2023-01-12T12:00:05.177Z,8.80
2023-01-12T12:02:37.685Z,8.80
2023-01-12T12:05:23.669Z,8.80
2023-01-12T12:08:05.409Z,8.80
2023-01-12T12:10:47.120Z,8.80
2023-01-12T12:13:38.633Z,8.90
2023-01-12T12:16:16.392Z,8.90
2023-01-12T12:19:09.089Z,8.90
2023-01-12T12:21:55.314Z,9.00
2023-01-12T12:24:50.890Z,9.00
2023-01-12T12:27:24.345Z,9.00
2023-01-12T12:30:10.780Z,9.00
2023-01-12T12:33:14.971Z,9.00
2023-01-12T12:36:00.425Z,9.00
2023-01-12T12:38:36.250Z,9.10
2023-01-12T12:41:33.784Z,9.00
2023-01-12T12:44:51.840Z,9.00
2023-01-12T12:47:42.141Z,9.00
2023-01-12T12:50:22.345Z,9.00
2023-01-12T12:52:53.103Z,9.00
2023-01-12T12:55:19.795Z,9.00
2023-01-12T12:58:06.574Z,9.00
2023-01-12T13:00:40.472Z,9.00
2023-01-12T13:03:07.458Z,9.00
2023-01-12T13:05:47.802Z,9.00
2023-01-12T13:08:21.791Z,9.10
2023-01-12T13:10:53.123Z,9.10
2023-01-12T13:13:28.490Z,9.10
2023-01-12T13:16:20.308Z,9.10
2023-01-12T13:18:53.163Z,9.10
2023-01-12T13:21:55.850Z,9.10
2023-01-12T13:24:26.613Z,9.20
2023-01-12T13:26:53.969Z,9.10
2023-01-12T13:29:24.041Z,9.10
2023-01-12T13:31:51.235Z,9.20
2023-01-12T13:34:45.997Z,9.20
2023-01-12T13:37:18.813Z,9.20
2023-01-12T13:39:55.005Z,9.30
2023-01-12T13:42:40.254Z,9.30
2023-01-12T13:45:11.302Z,9.30
2023-01-12T13:47:38.056Z,9.30
2023-01-12T13:50:05.152Z,9.30
2023-01-12T13:52:33.923Z,9.30
2023-01-12T13:55:00.742Z,9.30
2023-01-12T13:57:28.991Z,9.20
2023-01-12T14:00:09.086Z,9.20
2023-01-12T14:02:39.054Z,9.10
2023-01-12T14:05:27.084Z,9.10
2023-01-12T14:07:53.829Z,9.10
2023-01-12T14:10:44.976Z,9.10
2023-01-12T14:13:30.642Z,9.10
2023-01-12T14:16:19.748Z,9.10
2023-01-12T14:18:49.676Z,9.10
2023-01-12T14:21:26.576Z,9.10
2023-01-12T14:23:53.751Z,9.10
2023-01-12T14:26:23.626Z,9.10
2023-01-12T14:28:51.294Z,9.20
2023-01-12T14:31:27.248Z,9.20
2023-01-12T14:33:55.729Z,9.20
2023-01-12T14:36:49.902Z,9.20
2023-01-12T14:39:20.121Z,9.20
2023-01-12T14:42:09.769Z,9.20
2023-01-12T14:44:57.574Z,9.30
2023-01-12T14:47:26.029Z,9.20
2023-01-12T14:49:52.924Z,9.20
2023-01-12T14:52:33.158Z,9.20
2023-01-12T14:55:19.534Z,9.20
2023-01-12T14:57:54.335Z,9.20
2023-01-12T15:00:27.871Z,9.20
2023-01-12T15:02:55.785Z,9.30
2023-01-12T15:05:25.237Z,9.20
2023-01-12T15:07:56.191Z,9.20
2023-01-12T15:10:36.080Z,9.30
2023-01-12T15:13:26.922Z,9.20
2023-01-12T15:16:13.315Z,9.20
2023-01-12T15:18:58.469Z,9.30
2023-01-12T15:21:44.345Z,9.30
2023-01-12T15:24:49.657Z,9.30
2023-01-12T15:27:21.213Z,9.40
2023-01-12T15:29:47.940Z,9.40
2023-01-12T15:32:46.321Z,9.30
2023-01-12T15:35:16.190Z,9.40
2023-01-12T15:37:43.155Z,9.30
2023-01-12T15:40:13.357Z,9.20
2023-01-12T15:42:40.144Z,9.20
2023-01-12T15:45:34.347Z,9.20
2023-01-12T15:48:02.241Z,9.30
2023-01-12T15:50:29.312Z,9.20
2023-01-12T15:52:58.167Z,9.20
2023-01-12T15:55:24.966Z,9.20
2023-01-12T15:57:52.121Z,9.20
2023-01-12T16:00:20.708Z,9.20
2023-01-12T16:02:48.656Z,9.30
2023-01-12T16:05:20.408Z,9.30
2023-01-12T16:07:48.744Z,9.30
2023-01-12T16:10:16.395Z,9.30
2023-01-12T16:12:44.266Z,9.30
2023-01-12T16:15:16.871Z,9.30
2023-01-12T16:17:43.716Z,9.30
2023-01-12T16:20:11.044Z,9.30
2023-01-12T16:22:37.922Z,9.20
2023-01-12T16:25:05.092Z,9.30
2023-01-12T16:27:32.293Z,9.30
2023-01-12T16:29:58.983Z,9.30
2023-01-12T16:32:26.126Z,9.30
2023-01-12T16:34:52.945Z,9.30
2023-01-12T16:37:26.547Z,9.30
2023-01-12T16:39:53.734Z,9.30
2023-01-12T16:42:20.451Z,9.20
2023-01-12T16:44:48.318Z,9.20
2023-01-12T16:47:16.249Z,9.20
2023-01-12T16:49:43.917Z,9.20
2023-01-12T16:52:13.640Z,9.20
2023-01-12T16:54:42.724Z,9.20
2023-01-12T16:57:10.394Z,9.20
2023-01-12T16:59:37.490Z,9.20
2023-01-12T17:02:07.774Z,9.20
2023-01-12T17:04:35.703Z,9.20
2023-01-12T17:07:03.464Z,9.10
2023-01-12T17:09:30.216Z,9.20
2023-01-12T17:11:58.297Z,9.20
2023-01-12T17:14:26.860Z,9.20
2023-01-12T17:16:57.732Z,9.20
2023-01-12T17:19:25.937Z,9.20
2023-01-12T17:21:54.479Z,9.20
2023-01-12T17:24:21.789Z,9.10
2023-01-12T17:26:52.120Z,9.10
2023-01-12T17:29:20.415Z,9.00
2023-01-12T17:31:47.702Z,9.00
2023-01-12T17:34:15.057Z,9.00
2023-01-12T17:36:42.078Z,9.00
2023-01-12T17:39:08.831Z,9.00
2023-01-12T17:41:53.928Z,9.00
2023-01-12T17:44:20.870Z,9.00
2023-01-12T17:46:47.604Z,9.10
2023-01-12T17:49:14.360Z,9.10
2023-01-12T17:51:41.128Z,9.20
2023-01-12T17:54:09.068Z,9.20
2023-01-12T17:56:35.749Z,9.20
2023-01-12T17:59:03.014Z,9.20
2023-01-12T18:01:30.656Z,9.20
2023-01-12T18:03:58.012Z,9.20
2023-01-12T18:06:27.705Z,9.20
2023-01-12T18:08:56.193Z,9.20
2023-01-12T18:11:23.307Z,9.20
2023-01-12T18:13:49.970Z,9.20
2023-01-12T18:16:16.766Z,9.20
2023-01-12T18:18:44.057Z,9.20
2023-01-12T18:21:12.480Z,9.10
2023-01-12T18:23:39.411Z,9.20
2023-01-12T18:26:07.698Z,9.20
2023-01-12T18:28:34.629Z,9.20
2023-01-12T18:31:05.622Z,9.20
2023-01-12T18:33:32.314Z,9.20
2023-01-12T18:35:59.046Z,9.20
2023-01-12T18:38:27.001Z,9.20
2023-01-12T18:41:12.724Z,9.20
2023-01-12T18:43:41.853Z,9.20
2023-01-12T18:46:12.385Z,9.20
2023-01-12T18:48:39.121Z,9.20
2023-01-12T18:51:24.247Z,9.20
2023-01-12T18:53:50.909Z,9.20
2023-01-12T18:56:17.834Z,9.20
2023-01-12T18:58:45.387Z,9.20
2023-01-12T19:01:20.025Z,9.20
2023-01-12T19:03:47.058Z,9.10
2023-01-12T19:06:23.227Z,9.10
2023-01-12T19:09:08.952Z,9.10
2023-01-12T19:11:36.113Z,9.10
2023-01-12T19:14:21.616Z,9.10
2023-01-12T19:17:06.752Z,9.10
2023-01-12T19:19:34.835Z,9.10
2023-01-12T19:22:20.979Z,9.10
2023-01-12T19:25:06.288Z,9.10
2023-01-12T19:27:51.256Z,9.10
2023-01-12T19:30:18.094Z,9.20
2023-01-12T19:32:44.792Z,9.20
2023-01-12T19:35:12.021Z,9.20
2023-01-12T19:37:39.865Z,9.20
2023-01-12T19:40:16.188Z,9.10
2023-01-12T19:43:01.373Z,9.10
2023-01-12T19:45:28.064Z,9.00
2023-01-12T19:47:55.040Z,9.10
2023-01-12T19:50:21.763Z,9.10
2023-01-12T19:52:48.472Z,9.00
2023-01-12T19:55:15.197Z,9.00
2023-01-12T19:57:42.995Z,9.00
2023-01-12T20:00:13.964Z,9.00
2023-01-12T20:02:41.067Z,9.00
2023-01-12T20:05:07.903Z,9.00
2023-01-12T20:07:34.611Z,9.00
2023-01-12T20:10:01.700Z,9.00
2023-01-12T20:12:28.506Z,9.00
2023-01-12T20:14:55.173Z,9.00
2023-01-12T20:17:21.838Z,9.00
2023-01-12T20:19:48.879Z,8.90
2023-01-12T20:22:15.649Z,8.90
2023-01-12T20:24:42.327Z,9.00
2023-01-12T20:27:08.988Z,8.90
2023-01-12T20:29:35.695Z,8.90
2023-01-12T20:32:02.415Z,8.90
2023-01-12T20:34:30.499Z,8.90
2023-01-12T20:36:57.384Z,8.90
2023-01-12T20:39:24.146Z,8.90
2023-01-12T20:41:51.033Z,8.90
2023-01-12T20:44:17.830Z,9.00
2023-01-12T20:46:44.663Z,8.90
2023-01-12T20:49:11.871Z,8.90
2023-01-12T20:51:38.513Z,9.00
2023-01-12T20:54:05.313Z,8.90
2023-01-12T20:56:32.131Z,8.90
2023-01-12T20:58:59.697Z,8.90
2023-01-12T21:01:26.694Z,8.90
2023-01-12T21:03:53.408Z,9.00
2023-01-12T21:06:20.186Z,9.00
2023-01-12T21:08:47.289Z,9.00
2023-01-12T21:11:15.771Z,9.00
2023-01-12T21:13:43.000Z,8.90
2023-01-12T21:16:14.879Z,9.00
2023-01-12T21:18:41.618Z,8.90
2023-01-12T21:21:08.353Z,8.90
2023-01-12T21:23:35.038Z,8.90
2023-01-12T21:26:01.844Z,8.90
2023-01-12T21:28:30.382Z,9.00
2023-01-12T21:31:01.037Z,9.00
2023-01-12T21:33:27.682Z,9.00
2023-01-12T21:35:57.660Z,9.00
2023-01-12T21:38:25.005Z,9.00
2023-01-12T21:40:51.720Z,9.00
2023-01-12T21:43:19.362Z,9.00
2023-01-12T21:45:48.788Z,9.00
2023-01-12T21:48:16.531Z,9.00
2023-01-12T21:50:43.197Z,9.00
2023-01-12T21:53:17.558Z,9.00
2023-01-12T21:55:55.486Z,9.10
2023-01-12T21:58:23.332Z,9.00
2023-01-12T22:00:50.190Z,9.00
2023-01-12T22:03:16.991Z,9.00
2023-01-12T22:05:44.320Z,9.00
2023-01-12T22:08:11.268Z,9.00
2023-01-12T22:10:38.096Z,9.00
2023-01-12T22:13:06.633Z,9.00
2023-01-12T22:15:33.599Z,9.00
2023-01-12T22:18:00.878Z,9.00
2023-01-12T22:20:27.775Z,9.00
2023-01-12T22:22:54.451Z,9.00
2023-01-12T22:25:21.155Z,9.00
2023-01-12T22:27:47.856Z,9.00
2023-01-12T22:30:17.180Z,9.00
2023-01-12T22:32:44.297Z,9.00
2023-01-12T22:35:11.201Z,9.00
2023-01-12T22:37:38.141Z,9.00
2023-01-12T22:40:06.198Z,9.00
2023-01-12T22:42:51.425Z,9.00
2023-01-12T22:45:18.090Z,9.10
2023-01-12T22:47:48.525Z,9.10
2023-01-12T22:50:15.646Z,9.10
2023-01-12T22:52:42.339Z,9.10
2023-01-12T22:55:09.342Z,9.10
2023-01-12T22:57:36.118Z,9.10
2023-01-12T23:00:03.445Z,9.10
2023-01-12T23:02:48.771Z,9.10
2023-01-12T23:05:15.683Z,9.10
2023-01-12T23:07:42.459Z,9.10
2023-01-12T23:10:09.502Z,9.10
2023-01-12T23:12:36.145Z,9.00
2023-01-12T23:15:02.915Z,9.00
2023-01-12T23:17:30.397Z,9.00
2023-01-12T23:19:57.110Z,9.00
2023-01-12T23:22:23.754Z,9.00
2023-01-12T23:24:50.401Z,9.00
2023-01-12T23:27:17.084Z,9.00
2023-01-12T23:29:43.749Z,9.00
2023-01-12T23:32:10.438Z,9.00
2023-01-12T23:34:37.085Z,9.00
2023-01-12T23:37:03.740Z,9.00
2023-01-12T23:39:30.468Z,9.00
2023-01-12T23:41:57.402Z,9.00
2023-01-12T23:44:24.189Z,9.00
2023-01-12T23:46:50.938Z,9.00
2023-01-12T23:49:17.717Z,9.00
2023-01-12T23:51:44.392Z,9.00
2023-01-12T23:54:11.076Z,9.00
2023-01-12T23:56:37.805Z,9.00
2023-01-12T23:59:04.477Z,9.00
